sensor_id;sensor_type;location;lat;lon;timestamp;P1;durP1;ratioP1;P2;durP2;ratioP2
77191;SDS011;66172;48.526;8.078;2023-02-01T00:01:20;7.07;;;2.38;;
77191;SDS011;66172;48.526;8.078;2023-02-01T00:03:45;7.28;;;2.50;;
77191;SDS011;66172;48.526;8.078;2023-02-01T00:06:11;7.87;;;2.80;;
77191;SDS011;66172;48.526;8.078;2023-02-01T00:08:37;8.43;;;2.65;;
77191;SDS011;66172;48.526;8.078;2023-02-01T00:11:04;7.45;;;2.75;;
77191;SDS011;66172;48.526;8.078;2023-02-01T00:13:34;8.23;;;2.50;;
77191;SDS011;66172;48.526;8.078;2023-02-01T00:16:45;8.00;;;3.20;;
77191;SDS011;66172;48.526;8.078;2023-02-01T00:19:01;7.28;;;2.50;;
77191;SDS011;66172;48.526;8.078;2023-02-01T00:21:29;8.55;;;2.45;;
77191;SDS011;66172;48.526;8.078;2023-02-01T00:23:55;6.45;;;2.10;;
77191;SDS011;66172;48.526;8.078;2023-02-01T00:26:24;7.53;;;2.40;;
77191;SDS011;66172;48.526;8.078;2023-02-01T00:28:55;6.93;;;2.00;;
77191;SDS011;66172;48.526;8.078;2023-02-01T00:31:21;6.38;;;2.50;;
77191;SDS011;66172;48.526;8.078;2023-02-01T00:33:47;6.60;;;2.25;;
77191;SDS011;66172;48.526;8.078;2023-02-01T00:36:14;6.37;;;2.07;;
77191;SDS011;66172;48.526;8.078;2023-02-01T00:38:40;6.10;;;2.40;;
77191;SDS011;66172;48.526;8.078;2023-02-01T00:41:13;5.68;;;1.67;;
77191;SDS011;66172;48.526;8.078;2023-02-01T00:43:40;6.20;;;1.73;;
77191;SDS011;66172;48.526;8.078;2023-02-01T00:46:07;5.55;;;1.48;;
77191;SDS011;66172;48.526;8.078;2023-02-01T00:48:33;7.20;;;1.80;;
77191;SDS011;66172;48.526;8.078;2023-02-01T00:51:00;5.25;;;1.55;;
77191;SDS011;66172;48.526;8.078;2023-02-01T00:53:27;6.68;;;1.70;;
77191;SDS011;66172;48.526;8.078;2023-02-01T00:55:53;6.18;;;1.80;;
77191;SDS011;66172;48.526;8.078;2023-02-01T00:58:19;5.07;;;1.80;;
77191;SDS011;66172;48.526;8.078;2023-02-01T01:00:44;5.55;;;1.50;;
77191;SDS011;66172;48.526;8.078;2023-02-01T01:03:11;5.63;;;1.75;;
77191;SDS011;66172;48.526;8.078;2023-02-01T01:05:44;5.82;;;1.48;;
77191;SDS011;66172;48.526;8.078;2023-02-01T01:08:10;5.10;;;1.58;;
77191;SDS011;66172;48.526;8.078;2023-02-01T01:10:36;5.67;;;1.73;;
77191;SDS011;66172;48.526;8.078;2023-02-01T01:13:02;6.05;;;1.95;;
77191;SDS011;66172;48.526;8.078;2023-02-01T01:15:28;5.90;;;1.90;;
77191;SDS011;66172;48.526;8.078;2023-02-01T01:17:54;4.73;;;1.30;;
77191;SDS011;66172;48.526;8.078;2023-02-01T01:20:20;7.03;;;1.80;;
77191;SDS011;66172;48.526;8.078;2023-02-01T01:22:47;5.35;;;1.67;;
77191;SDS011;66172;48.526;8.078;2023-02-01T01:25:13;5.13;;;1.50;;
77191;SDS011;66172;48.526;8.078;2023-02-01T01:27:40;6.70;;;1.63;;
77191;SDS011;66172;48.526;8.078;2023-02-01T01:30:06;5.23;;;1.83;;
77191;SDS011;66172;48.526;8.078;2023-02-01T01:32:33;5.47;;;1.80;;
77191;SDS011;66172;48.526;8.078;2023-02-01T01:34:58;5.50;;;1.65;;
77191;SDS011;66172;48.526;8.078;2023-02-01T01:37:24;5.77;;;1.77;;
77191;SDS011;66172;48.526;8.078;2023-02-01T01:39:50;5.22;;;1.58;;
77191;SDS011;66172;48.526;8.078;2023-02-01T01:42:16;5.07;;;1.65;;
77191;SDS011;66172;48.526;8.078;2023-02-01T01:45:05;5.40;;;1.65;;
77191;SDS011;66172;48.526;8.078;2023-02-01T01:47:37;6.27;;;1.90;;
77191;SDS011;66172;48.526;8.078;2023-02-01T01:50:09;6.22;;;1.50;;
77191;SDS011;66172;48.526;8.078;2023-02-01T01:52:39;5.20;;;1.63;;
77191;SDS011;66172;48.526;8.078;2023-02-01T01:55:06;5.07;;;1.30;;
77191;SDS011;66172;48.526;8.078;2023-02-01T01:57:33;4.95;;;1.30;;
77191;SDS011;66172;48.526;8.078;2023-02-01T02:00:12;4.60;;;1.40;;
77191;SDS011;66172;48.526;8.078;2023-02-01T02:02:43;4.80;;;1.60;;
77191;SDS011;66172;48.526;8.078;2023-02-01T02:05:12;4.97;;;1.50;;
77191;SDS011;66172;48.526;8.078;2023-02-01T02:07:39;7.40;;;1.30;;
77191;SDS011;66172;48.526;8.078;2023-02-01T02:10:10;4.75;;;1.13;;
77191;SDS011;66172;48.526;8.078;2023-02-01T02:12:38;4.27;;;1.00;;
77191;SDS011;66172;48.526;8.078;2023-02-01T02:15:06;4.75;;;1.38;;
77191;SDS011;66172;48.526;8.078;2023-02-01T02:17:58;5.00;;;1.20;;
77191;SDS011;66172;48.526;8.078;2023-02-01T02:23:48;4.22;;;1.00;;
77191;SDS011;66172;48.526;8.078;2023-02-01T02:26:51;5.90;;;1.80;;
77191;SDS011;66172;48.526;8.078;2023-02-01T02:29:36;6.57;;;1.83;;
77191;SDS011;66172;48.526;8.078;2023-02-01T02:32:23;5.40;;;1.48;;
77191;SDS011;66172;48.526;8.078;2023-02-01T02:37:43;4.47;;;1.10;;
77191;SDS011;66172;48.526;8.078;2023-02-01T02:40:28;4.63;;;1.37;;
77191;SDS011;66172;48.526;8.078;2023-02-01T02:43:04;5.80;;;1.27;;
77191;SDS011;66172;48.526;8.078;2023-02-01T02:46:07;4.80;;;1.30;;
77191;SDS011;66172;48.526;8.078;2023-02-01T02:49:09;6.53;;;1.40;;
77191;SDS011;66172;48.526;8.078;2023-02-01T02:51:56;5.15;;;1.30;;
77191;SDS011;66172;48.526;8.078;2023-02-01T02:54:56;5.00;;;1.10;;
77191;SDS011;66172;48.526;8.078;2023-02-01T02:57:28;4.28;;;1.00;;
77191;SDS011;66172;48.526;8.078;2023-02-01T03:00:20;4.28;;;1.00;;
77191;SDS011;66172;48.526;8.078;2023-02-01T03:03:07;4.40;;;1.00;;
77191;SDS011;66172;48.526;8.078;2023-02-01T03:05:52;5.10;;;1.10;;
77191;SDS011;66172;48.526;8.078;2023-02-01T03:11:02;5.65;;;1.17;;
77191;SDS011;66172;48.526;8.078;2023-02-01T03:16:23;3.42;;;0.60;;
77191;SDS011;66172;48.526;8.078;2023-02-01T03:18:56;5.05;;;0.90;;
77191;SDS011;66172;48.526;8.078;2023-02-01T03:21:39;4.17;;;0.70;;
77191;SDS011;66172;48.526;8.078;2023-02-01T03:24:10;3.78;;;0.85;;
77191;SDS011;66172;48.526;8.078;2023-02-01T03:26:41;3.90;;;0.90;;
77191;SDS011;66172;48.526;8.078;2023-02-01T03:29:13;4.35;;;0.90;;
77191;SDS011;66172;48.526;8.078;2023-02-01T03:31:43;3.83;;;0.80;;
77191;SDS011;66172;48.526;8.078;2023-02-01T03:34:10;5.67;;;0.90;;
77191;SDS011;66172;48.526;8.078;2023-02-01T03:36:40;3.80;;;0.77;;
77191;SDS011;66172;48.526;8.078;2023-02-01T03:39:24;4.35;;;0.90;;
77191;SDS011;66172;48.526;8.078;2023-02-01T03:42:33;4.88;;;0.80;;
77191;SDS011;66172;48.526;8.078;2023-02-01T03:45:00;3.47;;;0.75;;
77191;SDS011;66172;48.526;8.078;2023-02-01T03:47:29;4.57;;;0.93;;
77191;SDS011;66172;48.526;8.078;2023-02-01T03:50:00;4.57;;;0.85;;
77191;SDS011;66172;48.526;8.078;2023-02-01T03:52:47;4.03;;;0.80;;
77191;SDS011;66172;48.526;8.078;2023-02-01T03:55:18;3.67;;;0.60;;
77191;SDS011;66172;48.526;8.078;2023-02-01T03:57:55;3.97;;;0.70;;
77191;SDS011;66172;48.526;8.078;2023-02-01T04:00:25;3.93;;;0.63;;
77191;SDS011;66172;48.526;8.078;2023-02-01T04:02:52;3.40;;;0.70;;
77191;SDS011;66172;48.526;8.078;2023-02-01T04:05:18;4.63;;;1.17;;
77191;SDS011;66172;48.526;8.078;2023-02-01T04:07:44;4.78;;;1.10;;
77191;SDS011;66172;48.526;8.078;2023-02-01T04:10:10;4.63;;;1.10;;
77191;SDS011;66172;48.526;8.078;2023-02-01T04:12:37;5.10;;;1.02;;
77191;SDS011;66172;48.526;8.078;2023-02-01T04:15:03;3.80;;;0.90;;
77191;SDS011;66172;48.526;8.078;2023-02-01T04:17:30;4.45;;;0.82;;
77191;SDS011;66172;48.526;8.078;2023-02-01T04:19:56;4.10;;;0.80;;
77191;SDS011;66172;48.526;8.078;2023-02-01T04:22:22;4.97;;;1.27;;
77191;SDS011;66172;48.526;8.078;2023-02-01T04:24:48;4.70;;;1.27;;
77191;SDS011;66172;48.526;8.078;2023-02-01T04:27:14;4.60;;;0.93;;
77191;SDS011;66172;48.526;8.078;2023-02-01T04:29:40;4.10;;;1.05;;
77191;SDS011;66172;48.526;8.078;2023-02-01T04:32:06;4.57;;;1.03;;
77191;SDS011;66172;48.526;8.078;2023-02-01T04:34:32;4.05;;;0.90;;
77191;SDS011;66172;48.526;8.078;2023-02-01T04:36:58;3.92;;;0.85;;
77191;SDS011;66172;48.526;8.078;2023-02-01T04:39:24;3.72;;;0.80;;
77191;SDS011;66172;48.526;8.078;2023-02-01T04:41:50;4.10;;;0.90;;
77191;SDS011;66172;48.526;8.078;2023-02-01T04:44:17;5.38;;;0.90;;
77191;SDS011;66172;48.526;8.078;2023-02-01T04:46:44;4.25;;;0.98;;
77191;SDS011;66172;48.526;8.078;2023-02-01T04:49:11;4.60;;;1.10;;
77191;SDS011;66172;48.526;8.078;2023-02-01T04:51:37;3.83;;;0.85;;
77191;SDS011;66172;48.526;8.078;2023-02-01T04:54:04;5.07;;;0.80;;
77191;SDS011;66172;48.526;8.078;2023-02-01T04:56:30;5.70;;;1.13;;
77191;SDS011;66172;48.526;8.078;2023-02-01T04:58:56;4.28;;;0.70;;
77191;SDS011;66172;48.526;8.078;2023-02-01T05:01:22;4.65;;;0.70;;
77191;SDS011;66172;48.526;8.078;2023-02-01T05:03:50;4.27;;;0.63;;
77191;SDS011;66172;48.526;8.078;2023-02-01T05:06:16;4.15;;;0.50;;
77191;SDS011;66172;48.526;8.078;2023-02-01T05:08:42;5.20;;;0.52;;
77191;SDS011;66172;48.526;8.078;2023-02-01T05:11:08;3.20;;;0.50;;
77191;SDS011;66172;48.526;8.078;2023-02-01T05:13:54;2.90;;;0.40;;
77191;SDS011;66172;48.526;8.078;2023-02-01T05:16:20;2.60;;;0.43;;
77191;SDS011;66172;48.526;8.078;2023-02-01T05:18:45;2.85;;;0.38;;
77191;SDS011;66172;48.526;8.078;2023-02-01T05:21:11;3.63;;;0.60;;
77191;SDS011;66172;48.526;8.078;2023-02-01T05:23:38;3.00;;;0.53;;
77191;SDS011;66172;48.526;8.078;2023-02-01T05:26:23;3.35;;;0.60;;
77191;SDS011;66172;48.526;8.078;2023-02-01T05:28:50;2.88;;;0.40;;
77191;SDS011;66172;48.526;8.078;2023-02-01T05:31:16;3.80;;;0.40;;
77191;SDS011;66172;48.526;8.078;2023-02-01T05:33:42;4.80;;;1.30;;
77191;SDS011;66172;48.526;8.078;2023-02-01T05:36:08;3.13;;;0.40;;
77191;SDS011;66172;48.526;8.078;2023-02-01T05:38:34;4.03;;;0.45;;
77191;SDS011;66172;48.526;8.078;2023-02-01T05:41:00;3.15;;;0.50;;
77191;SDS011;66172;48.526;8.078;2023-02-01T05:43:26;3.10;;;0.45;;
77191;SDS011;66172;48.526;8.078;2023-02-01T05:45:52;2.83;;;0.40;;
77191;SDS011;66172;48.526;8.078;2023-02-01T05:48:18;3.17;;;0.40;;
77191;SDS011;66172;48.526;8.078;2023-02-01T05:50:44;4.57;;;0.60;;
77191;SDS011;66172;48.526;8.078;2023-02-01T05:53:10;3.80;;;0.57;;
77191;SDS011;66172;48.526;8.078;2023-02-01T05:55:37;4.57;;;1.30;;
77191;SDS011;66172;48.526;8.078;2023-02-01T05:58:04;4.20;;;0.95;;
77191;SDS011;66172;48.526;8.078;2023-02-01T06:00:30;3.83;;;0.82;;
77191;SDS011;66172;48.526;8.078;2023-02-01T06:02:57;2.97;;;0.40;;
77191;SDS011;66172;48.526;8.078;2023-02-01T06:05:23;3.13;;;0.60;;
77191;SDS011;66172;48.526;8.078;2023-02-01T06:07:49;4.43;;;0.67;;
77191;SDS011;66172;48.526;8.078;2023-02-01T06:10:18;3.90;;;0.65;;
77191;SDS011;66172;48.526;8.078;2023-02-01T06:12:44;4.25;;;0.80;;
77191;SDS011;66172;48.526;8.078;2023-02-01T06:15:12;5.03;;;0.90;;
77191;SDS011;66172;48.526;8.078;2023-02-01T06:17:41;5.30;;;0.70;;
77191;SDS011;66172;48.526;8.078;2023-02-01T06:20:09;4.20;;;0.67;;
77191;SDS011;66172;48.526;8.078;2023-02-01T06:22:36;3.70;;;0.60;;
77191;SDS011;66172;48.526;8.078;2023-02-01T06:25:05;3.92;;;0.60;;
77191;SDS011;66172;48.526;8.078;2023-02-01T06:27:32;5.50;;;0.90;;
77191;SDS011;66172;48.526;8.078;2023-02-01T06:29:58;3.77;;;0.80;;
77191;SDS011;66172;48.526;8.078;2023-02-01T06:32:24;3.42;;;0.70;;
77191;SDS011;66172;48.526;8.078;2023-02-01T06:34:50;4.68;;;0.95;;
77191;SDS011;66172;48.526;8.078;2023-02-01T06:37:18;4.38;;;1.00;;
77191;SDS011;66172;48.526;8.078;2023-02-01T06:39:44;14.03;;;2.80;;
77191;SDS011;66172;48.526;8.078;2023-02-01T06:42:10;4.45;;;1.10;;
77191;SDS011;66172;48.526;8.078;2023-02-01T06:44:36;4.22;;;1.00;;
77191;SDS011;66172;48.526;8.078;2023-02-01T06:47:03;4.20;;;0.90;;
77191;SDS011;66172;48.526;8.078;2023-02-01T06:49:29;3.60;;;0.83;;
77191;SDS011;66172;48.526;8.078;2023-02-01T06:51:55;4.72;;;0.80;;
77191;SDS011;66172;48.526;8.078;2023-02-01T06:54:21;4.72;;;1.20;;
77191;SDS011;66172;48.526;8.078;2023-02-01T06:56:47;4.55;;;1.00;;
77191;SDS011;66172;48.526;8.078;2023-02-01T06:59:13;4.07;;;1.07;;
77191;SDS011;66172;48.526;8.078;2023-02-01T07:01:39;6.20;;;0.90;;
77191;SDS011;66172;48.526;8.078;2023-02-01T07:04:05;5.35;;;1.23;;
77191;SDS011;66172;48.526;8.078;2023-02-01T07:06:31;4.72;;;0.98;;
77191;SDS011;66172;48.526;8.078;2023-02-01T07:08:57;6.05;;;1.00;;
77191;SDS011;66172;48.526;8.078;2023-02-01T07:11:23;3.80;;;0.90;;
77191;SDS011;66172;48.526;8.078;2023-02-01T07:13:49;4.38;;;1.13;;
77191;SDS011;66172;48.526;8.078;2023-02-01T07:16:16;3.72;;;0.70;;
77191;SDS011;66172;48.526;8.078;2023-02-01T07:18:43;4.60;;;1.30;;
77191;SDS011;66172;48.526;8.078;2023-02-01T07:21:10;4.20;;;0.90;;
77191;SDS011;66172;48.526;8.078;2023-02-01T07:23:35;4.43;;;1.00;;
77191;SDS011;66172;48.526;8.078;2023-02-01T07:26:03;5.97;;;0.95;;
77191;SDS011;66172;48.526;8.078;2023-02-01T07:28:32;3.72;;;0.80;;
77191;SDS011;66172;48.526;8.078;2023-02-01T07:31:04;5.35;;;1.10;;
77191;SDS011;66172;48.526;8.078;2023-02-01T07:33:30;4.50;;;1.00;;
77191;SDS011;66172;48.526;8.078;2023-02-01T07:35:56;6.13;;;1.73;;
77191;SDS011;66172;48.526;8.078;2023-02-01T07:38:22;4.15;;;1.00;;
77191;SDS011;66172;48.526;8.078;2023-02-01T07:40:49;4.55;;;1.23;;
77191;SDS011;66172;48.526;8.078;2023-02-01T07:43:15;5.00;;;1.10;;
77191;SDS011;66172;48.526;8.078;2023-02-01T07:45:41;4.95;;;1.17;;
77191;SDS011;66172;48.526;8.078;2023-02-01T07:48:07;5.32;;;1.00;;
77191;SDS011;66172;48.526;8.078;2023-02-01T07:50:33;4.10;;;1.00;;
77191;SDS011;66172;48.526;8.078;2023-02-01T07:52:59;4.33;;;0.87;;
77191;SDS011;66172;48.526;8.078;2023-02-01T07:55:26;5.53;;;1.02;;
77191;SDS011;66172;48.526;8.078;2023-02-01T07:57:52;6.40;;;1.38;;
77191;SDS011;66172;48.526;8.078;2023-02-01T08:00:18;4.18;;;0.80;;
77191;SDS011;66172;48.526;8.078;2023-02-01T08:03:03;3.53;;;0.70;;
77191;SDS011;66172;48.526;8.078;2023-02-01T08:05:30;3.90;;;0.80;;
77191;SDS011;66172;48.526;8.078;2023-02-01T08:07:56;3.67;;;0.82;;
77191;SDS011;66172;48.526;8.078;2023-02-01T08:10:22;5.85;;;0.88;;
77191;SDS011;66172;48.526;8.078;2023-02-01T08:12:48;4.70;;;0.80;;
77191;SDS011;66172;48.526;8.078;2023-02-01T08:15:14;5.63;;;0.85;;
77191;SDS011;66172;48.526;8.078;2023-02-01T08:17:47;8.95;;;2.08;;
77191;SDS011;66172;48.526;8.078;2023-02-01T08:20:17;5.97;;;0.90;;
77191;SDS011;66172;48.526;8.078;2023-02-01T08:22:44;5.53;;;1.00;;
77191;SDS011;66172;48.526;8.078;2023-02-01T08:25:10;6.90;;;1.30;;
77191;SDS011;66172;48.526;8.078;2023-02-01T08:27:36;5.97;;;1.23;;
77191;SDS011;66172;48.526;8.078;2023-02-01T08:30:03;7.50;;;1.48;;
77191;SDS011;66172;48.526;8.078;2023-02-01T08:32:30;6.22;;;1.17;;
77191;SDS011;66172;48.526;8.078;2023-02-01T08:34:56;5.40;;;1.10;;
77191;SDS011;66172;48.526;8.078;2023-02-01T08:37:22;7.75;;;1.20;;
77191;SDS011;66172;48.526;8.078;2023-02-01T08:39:48;6.95;;;1.60;;
77191;SDS011;66172;48.526;8.078;2023-02-01T08:42:15;7.53;;;1.42;;
77191;SDS011;66172;48.526;8.078;2023-02-01T08:45:01;9.03;;;1.43;;
77191;SDS011;66172;48.526;8.078;2023-02-01T08:47:28;10.95;;;2.42;;
77191;SDS011;66172;48.526;8.078;2023-02-01T08:49:54;8.48;;;1.50;;
77191;SDS011;66172;48.526;8.078;2023-02-01T08:52:20;6.28;;;1.00;;
77191;SDS011;66172;48.526;8.078;2023-02-01T08:54:46;6.47;;;1.42;;
77191;SDS011;66172;48.526;8.078;2023-02-01T08:57:12;6.50;;;1.17;;
77191;SDS011;66172;48.526;8.078;2023-02-01T08:59:38;11.32;;;1.58;;
77191;SDS011;66172;48.526;8.078;2023-02-01T09:02:04;7.72;;;1.42;;
77191;SDS011;66172;48.526;8.078;2023-02-01T09:04:30;11.43;;;2.05;;
77191;SDS011;66172;48.526;8.078;2023-02-01T09:06:56;7.70;;;1.20;;
77191;SDS011;66172;48.526;8.078;2023-02-01T09:09:22;7.40;;;1.30;;
77191;SDS011;66172;48.526;8.078;2023-02-01T09:11:49;5.75;;;1.30;;
77191;SDS011;66172;48.526;8.078;2023-02-01T09:14:18;10.20;;;1.20;;
77191;SDS011;66172;48.526;8.078;2023-02-01T09:16:44;8.60;;;1.40;;
77191;SDS011;66172;48.526;8.078;2023-02-01T09:19:10;8.07;;;1.13;;
77191;SDS011;66172;48.526;8.078;2023-02-01T09:21:36;8.32;;;1.55;;
77191;SDS011;66172;48.526;8.078;2023-02-01T09:24:02;8.48;;;1.63;;
77191;SDS011;66172;48.526;8.078;2023-02-01T09:26:29;7.63;;;1.20;;
77191;SDS011;66172;48.526;8.078;2023-02-01T09:28:55;9.75;;;1.52;;
77191;SDS011;66172;48.526;8.078;2023-02-01T09:31:21;9.02;;;1.48;;
77191;SDS011;66172;48.526;8.078;2023-02-01T09:33:47;10.33;;;1.93;;
77191;SDS011;66172;48.526;8.078;2023-02-01T09:36:13;10.30;;;1.30;;
77191;SDS011;66172;48.526;8.078;2023-02-01T09:38:38;7.70;;;1.50;;
77191;SDS011;66172;48.526;8.078;2023-02-01T09:44:10;7.23;;;1.43;;
77191;SDS011;66172;48.526;8.078;2023-02-01T09:46:46;9.48;;;1.35;;
77191;SDS011;66172;48.526;8.078;2023-02-01T09:49:14;9.00;;;1.92;;
77191;SDS011;66172;48.526;8.078;2023-02-01T09:51:47;11.68;;;1.63;;
77191;SDS011;66172;48.526;8.078;2023-02-01T09:54:59;5.40;;;1.30;;
77191;SDS011;66172;48.526;8.078;2023-02-01T09:57:23;8.43;;;1.23;;
77191;SDS011;66172;48.526;8.078;2023-02-01T10:00:06;6.22;;;1.42;;
77191;SDS011;66172;48.526;8.078;2023-02-01T10:02:41;10.43;;;1.77;;
77191;SDS011;66172;48.526;8.078;2023-02-01T10:05:11;12.07;;;2.13;;
77191;SDS011;66172;48.526;8.078;2023-02-01T10:10:32;9.93;;;1.53;;
77191;SDS011;66172;48.526;8.078;2023-02-01T10:16:51;8.10;;;1.23;;
77191;SDS011;66172;48.526;8.078;2023-02-01T10:19:58;5.93;;;0.93;;
77191;SDS011;66172;48.526;8.078;2023-02-01T10:22:43;5.25;;;0.98;;
77191;SDS011;66172;48.526;8.078;2023-02-01T10:25:26;9.37;;;1.10;;
77191;SDS011;66172;48.526;8.078;2023-02-01T10:27:59;7.15;;;0.90;;
77191;SDS011;66172;48.526;8.078;2023-02-01T10:30:31;8.13;;;1.80;;
77191;SDS011;66172;48.526;8.078;2023-02-01T10:33:49;7.78;;;1.30;;
77191;SDS011;66172;48.526;8.078;2023-02-01T10:38:42;4.70;;;0.90;;
77191;SDS011;66172;48.526;8.078;2023-02-01T10:41:12;6.57;;;1.40;;
77191;SDS011;66172;48.526;8.078;2023-02-01T10:43:40;7.95;;;1.00;;
77191;SDS011;66172;48.526;8.078;2023-02-01T10:46:07;5.35;;;0.80;;
77191;SDS011;66172;48.526;8.078;2023-02-01T10:48:33;5.70;;;1.10;;
77191;SDS011;66172;48.526;8.078;2023-02-01T10:51:01;7.93;;;0.97;;
77191;SDS011;66172;48.526;8.078;2023-02-01T10:53:47;8.65;;;1.88;;
77191;SDS011;66172;48.526;8.078;2023-02-01T10:56:25;6.35;;;1.33;;
77191;SDS011;66172;48.526;8.078;2023-02-01T10:58:52;6.22;;;1.60;;
77191;SDS011;66172;48.526;8.078;2023-02-01T11:01:33;9.70;;;1.55;;
77191;SDS011;66172;48.526;8.078;2023-02-01T11:04:04;7.37;;;1.73;;
77191;SDS011;66172;48.526;8.078;2023-02-01T11:06:35;10.60;;;1.45;;
77191;SDS011;66172;48.526;8.078;2023-02-01T11:11:31;8.45;;;1.10;;
77191;SDS011;66172;48.526;8.078;2023-02-01T11:13:59;7.22;;;1.40;;
77191;SDS011;66172;48.526;8.078;2023-02-01T11:16:34;8.13;;;1.70;;
77191;SDS011;66172;48.526;8.078;2023-02-01T11:19:02;9.73;;;1.45;;
77191;SDS011;66172;48.526;8.078;2023-02-01T11:21:29;7.68;;;1.63;;
77191;SDS011;66172;48.526;8.078;2023-02-01T11:23:55;10.70;;;1.85;;
77191;SDS011;66172;48.526;8.078;2023-02-01T11:26:27;8.45;;;1.75;;
77191;SDS011;66172;48.526;8.078;2023-02-01T11:28:54;11.03;;;2.00;;
77191;SDS011;66172;48.526;8.078;2023-02-01T11:31:25;13.45;;;1.90;;
77191;SDS011;66172;48.526;8.078;2023-02-01T11:33:54;6.97;;;1.90;;
77191;SDS011;66172;48.526;8.078;2023-02-01T11:36:27;10.52;;;3.28;;
77191;SDS011;66172;48.526;8.078;2023-02-01T11:41:41;11.93;;;1.50;;
77191;SDS011;66172;48.526;8.078;2023-02-01T11:44:22;12.63;;;2.00;;
77191;SDS011;66172;48.526;8.078;2023-02-01T11:46:52;9.75;;;2.40;;
77191;SDS011;66172;48.526;8.078;2023-02-01T11:49:22;9.65;;;1.60;;
77191;SDS011;66172;48.526;8.078;2023-02-01T11:54:41;10.90;;;1.80;;
77191;SDS011;66172;48.526;8.078;2023-02-01T11:57:42;10.80;;;2.78;;
77191;SDS011;66172;48.526;8.078;2023-02-01T12:06:28;11.20;;;1.87;;
77191;SDS011;66172;48.526;8.078;2023-02-01T12:09:21;10.98;;;2.70;;
77191;SDS011;66172;48.526;8.078;2023-02-01T12:12:08;9.85;;;1.60;;
77191;SDS011;66172;48.526;8.078;2023-02-01T12:14:48;10.25;;;1.77;;
77191;SDS011;66172;48.526;8.078;2023-02-01T12:26:07;8.07;;;1.40;;
77191;SDS011;66172;48.526;8.078;2023-02-01T12:31:18;10.20;;;1.65;;
77191;SDS011;66172;48.526;8.078;2023-02-01T12:33:57;11.47;;;2.30;;
77191;SDS011;66172;48.526;8.078;2023-02-01T12:39:25;10.00;;;1.75;;
77191;SDS011;66172;48.526;8.078;2023-02-01T12:42:04;12.30;;;2.50;;
77191;SDS011;66172;48.526;8.078;2023-02-01T12:44:50;10.30;;;2.63;;
77191;SDS011;66172;48.526;8.078;2023-02-01T12:50:05;8.02;;;1.75;;
77191;SDS011;66172;48.526;8.078;2023-02-01T12:52:47;9.25;;;1.52;;
77191;SDS011;66172;48.526;8.078;2023-02-01T12:57:47;8.52;;;1.50;;
77191;SDS011;66172;48.526;8.078;2023-02-01T13:00:32;9.07;;;1.33;;
77191;SDS011;66172;48.526;8.078;2023-02-01T13:03:11;7.45;;;1.83;;
77191;SDS011;66172;48.526;8.078;2023-02-01T13:05:50;7.53;;;1.50;;
77191;SDS011;66172;48.526;8.078;2023-02-01T13:08:25;12.50;;;1.92;;
77191;SDS011;66172;48.526;8.078;2023-02-01T13:10:58;8.45;;;1.80;;
77191;SDS011;66172;48.526;8.078;2023-02-01T13:13:41;8.37;;;1.60;;
77191;SDS011;66172;48.526;8.078;2023-02-01T13:18:53;13.15;;;2.13;;
77191;SDS011;66172;48.526;8.078;2023-02-01T13:21:27;11.48;;;1.83;;
77191;SDS011;66172;48.526;8.078;2023-02-01T13:23:57;6.70;;;1.70;;
77191;SDS011;66172;48.526;8.078;2023-02-01T13:26:24;10.23;;;2.13;;
77191;SDS011;66172;48.526;8.078;2023-02-01T13:29:00;9.10;;;2.20;;
77191;SDS011;66172;48.526;8.078;2023-02-01T13:43:46;9.50;;;2.13;;
77191;SDS011;66172;48.526;8.078;2023-02-01T13:45:55;17.02;;;2.42;;
77191;SDS011;66172;48.526;8.078;2023-02-01T13:48:25;10.32;;;1.40;;
77191;SDS011;66172;48.526;8.078;2023-02-01T13:50:56;11.93;;;2.53;;
77191;SDS011;66172;48.526;8.078;2023-02-01T13:53:26;14.33;;;1.90;;
77191;SDS011;66172;48.526;8.078;2023-02-01T13:56:01;6.72;;;1.58;;
77191;SDS011;66172;48.526;8.078;2023-02-01T13:58:36;8.82;;;1.67;;
77191;SDS011;66172;48.526;8.078;2023-02-01T14:03:48;10.07;;;2.75;;
77191;SDS011;66172;48.526;8.078;2023-02-01T14:11:44;8.23;;;1.58;;
77191;SDS011;66172;48.526;8.078;2023-02-01T14:16:40;10.17;;;1.87;;
77191;SDS011;66172;48.526;8.078;2023-02-01T14:21:56;15.15;;;2.35;;
77191;SDS011;66172;48.526;8.078;2023-02-01T14:24:27;13.80;;;2.03;;
77191;SDS011;66172;48.526;8.078;2023-02-01T14:26:56;11.95;;;1.85;;
77191;SDS011;66172;48.526;8.078;2023-02-01T14:32:11;9.80;;;1.60;;
77191;SDS011;66172;48.526;8.078;2023-02-01T14:47:48;9.07;;;1.60;;
77191;SDS011;66172;48.526;8.078;2023-02-01T14:50:31;9.73;;;1.80;;
77191;SDS011;66172;48.526;8.078;2023-02-01T15:01:00;9.73;;;1.80;;
77191;SDS011;66172;48.526;8.078;2023-02-01T15:05:57;8.25;;;1.55;;
77191;SDS011;66172;48.526;8.078;2023-02-01T15:08:28;12.20;;;1.80;;
77191;SDS011;66172;48.526;8.078;2023-02-01T15:10:58;10.50;;;2.30;;
77191;SDS011;66172;48.526;8.078;2023-02-01T15:13:28;12.07;;;1.88;;
77191;SDS011;66172;48.526;8.078;2023-02-01T15:18:27;9.95;;;1.27;;
77191;SDS011;66172;48.526;8.078;2023-02-01T15:20:56;11.47;;;1.70;;
77191;SDS011;66172;48.526;8.078;2023-02-01T15:23:23;14.07;;;2.30;;
77191;SDS011;66172;48.526;8.078;2023-02-01T15:25:49;12.27;;;2.88;;
77191;SDS011;66172;48.526;8.078;2023-02-01T15:28:15;14.17;;;2.10;;
77191;SDS011;66172;48.526;8.078;2023-02-01T15:30:52;9.43;;;1.98;;
77191;SDS011;66172;48.526;8.078;2023-02-01T15:33:19;12.07;;;1.85;;
77191;SDS011;66172;48.526;8.078;2023-02-01T15:35:47;10.23;;;1.30;;
77191;SDS011;66172;48.526;8.078;2023-02-01T15:41:28;12.83;;;1.40;;
77191;SDS011;66172;48.526;8.078;2023-02-01T15:47:04;9.35;;;1.85;;
77191;SDS011;66172;48.526;8.078;2023-02-01T15:49:18;9.75;;;1.75;;
77191;SDS011;66172;48.526;8.078;2023-02-01T15:51:53;9.38;;;1.60;;
77191;SDS011;66172;48.526;8.078;2023-02-01T15:54:22;11.10;;;1.50;;
77191;SDS011;66172;48.526;8.078;2023-02-01T15:57:07;8.75;;;1.70;;
77191;SDS011;66172;48.526;8.078;2023-02-01T15:59:43;7.78;;;1.38;;
77191;SDS011;66172;48.526;8.078;2023-02-01T16:02:24;10.82;;;2.05;;
77191;SDS011;66172;48.526;8.078;2023-02-01T16:04:58;10.82;;;1.85;;
77191;SDS011;66172;48.526;8.078;2023-02-01T16:07:26;10.10;;;1.93;;
77191;SDS011;66172;48.526;8.078;2023-02-01T16:09:55;11.40;;;1.95;;
77191;SDS011;66172;48.526;8.078;2023-02-01T16:12:26;11.73;;;2.13;;
77191;SDS011;66172;48.526;8.078;2023-02-01T16:14:55;8.20;;;1.30;;
77191;SDS011;66172;48.526;8.078;2023-02-01T16:17:21;13.73;;;2.20;;
77191;SDS011;66172;48.526;8.078;2023-02-01T16:19:47;11.73;;;2.07;;
77191;SDS011;66172;48.526;8.078;2023-02-01T16:22:13;8.15;;;1.60;;
77191;SDS011;66172;48.526;8.078;2023-02-01T16:24:39;13.50;;;1.90;;
77191;SDS011;66172;48.526;8.078;2023-02-01T16:27:05;8.33;;;1.40;;
77191;SDS011;66172;48.526;8.078;2023-02-01T16:29:32;10.88;;;1.90;;
77191;SDS011;66172;48.526;8.078;2023-02-01T16:31:59;9.82;;;1.58;;
77191;SDS011;66172;48.526;8.078;2023-02-01T16:34:25;11.73;;;1.67;;
77191;SDS011;66172;48.526;8.078;2023-02-01T16:36:51;10.68;;;1.63;;
77191;SDS011;66172;48.526;8.078;2023-02-01T16:39:18;13.20;;;1.70;;
77191;SDS011;66172;48.526;8.078;2023-02-01T16:41:45;12.43;;;2.25;;
77191;SDS011;66172;48.526;8.078;2023-02-01T16:44:11;9.80;;;1.77;;
77191;SDS011;66172;48.526;8.078;2023-02-01T16:46:41;10.80;;;2.30;;
77191;SDS011;66172;48.526;8.078;2023-02-01T16:49:17;11.55;;;2.13;;
77191;SDS011;66172;48.526;8.078;2023-02-01T16:51:46;12.53;;;2.20;;
77191;SDS011;66172;48.526;8.078;2023-02-01T16:54:14;13.25;;;1.92;;
77191;SDS011;66172;48.526;8.078;2023-02-01T16:56:40;8.35;;;1.70;;
77191;SDS011;66172;48.526;8.078;2023-02-01T16:59:08;10.77;;;1.83;;
77191;SDS011;66172;48.526;8.078;2023-02-01T17:01:34;11.50;;;2.33;;
77191;SDS011;66172;48.526;8.078;2023-02-01T17:04:03;6.90;;;1.58;;
77191;SDS011;66172;48.526;8.078;2023-02-01T17:06:29;8.80;;;1.75;;